Time;durP1;ratioP1;P1;durP2;ratioP2;P2;SDS_P1;SDS_P2;PMS_P1;PMS_P2;Temp;Humidity;BMP_temperature;BMP_pressure;BME280_temperature;BME280_humidity;BME280_pressure;Samples;Min_cycle;Max_cycle;Signal;HPM_P1;HPM_P2
2022/09/20 00:01:06;;;;;;;2.10;0.70;;;9.30;73.70;;;;;;4991945;28;20197;-58
2022/09/20 00:03:36;;;;;;;0.60;0.60;;;9.20;74.10;;;;;;5016072;28;20188;-59
2022/09/20 00:06:04;;;;;;;0.53;0.53;;;9.20;74.60;;;;;;4984008;28;20215;-59
2022/09/20 00:08:30;;;;;;;0.50;0.50;;;9.30;74.20;;;;;;4980443;28;20193;-58
2022/09/20 00:11:05;;;;;;;1.17;0.77;;;9.20;74.30;;;;;;5014871;28;20188;-58
2022/09/20 00:13:31;;;;;;;1.47;0.83;;;9.30;74.30;;;;;;5023333;28;20192;-58
2022/09/20 00:15:57;;;;;;;2.10;0.60;;;9.20;74.90;;;;;;5020749;28;20196;-58
2022/09/20 00:18:23;;;;;;;1.37;0.57;;;9.20;74.50;;;;;;4999831;28;20197;-58
2022/09/20 00:20:50;;;;;;;0.50;0.50;;;9.00;75.00;;;;;;4993184;28;20197;-58
2022/09/20 00:23:16;;;;;;;0.73;0.50;;;9.10;75.40;;;;;;5017400;28;20946;-59
2022/09/20 00:25:42;;;;;;;0.57;0.50;;;9.10;75.10;;;;;;4983736;28;20227;-58
2022/09/20 00:28:09;;;;;;;0.40;0.40;;;9.20;74.90;;;;;;5022485;28;20472;-59
2022/09/20 00:30:35;;;;;;;0.50;0.50;;;9.30;75.00;;;;;;4982198;28;20188;-58
2022/09/20 00:33:01;;;;;;;1.43;0.77;;;9.30;74.90;;;;;;4988856;28;20312;-59
2022/09/20 00:35:28;;;;;;;1.33;0.73;;;9.30;74.40;;;;;;4994673;28;20204;-58
2022/09/20 00:37:54;;;;;;;1.07;0.83;;;9.40;75.00;;;;;;5001300;28;20189;-59
2022/09/20 00:40:21;;;;;;;2.27;0.60;;;9.50;74.20;;;;;;4979369;28;20648;-58
2022/09/20 00:42:48;;;;;;;0.53;0.53;;;9.50;73.90;;;;;;5010316;28;20197;-59
2022/09/20 00:45:20;;;;;;;0.63;0.63;;;9.50;74.10;;;;;;4990133;28;20206;-59
2022/09/20 00:47:57;;;;;;;0.40;0.40;;;9.30;73.80;;;;;;5022808;28;20214;-59
2022/09/20 00:50:32;;;;;;;2.57;0.60;;;9.30;74.20;;;;;;5009973;28;20442;-59
2022/09/20 00:53:15;;;;;;;2.13;0.90;;;9.40;74.10;;;;;;4990268;28;20243;-59
2022/09/20 00:55:46;;;;;;;0.50;0.50;;;9.50;73.80;;;;;;4994042;28;20195;-59
2022/09/20 00:58:13;;;;;;;0.80;0.50;;;9.50;74.00;;;;;;5023873;28;20216;-59
2022/09/20 01:00:40;;;;;;;1.07;0.70;;;9.50;73.80;;;;;;5010824;28;20189;-58
2022/09/20 01:03:08;;;;;;;1.60;0.73;;;9.40;73.90;;;;;;5007441;28;20193;-59
2022/09/20 01:05:35;;;;;;;2.40;0.90;;;9.40;74.20;;;;;;5021650;28;20208;-59
2022/09/20 01:08:01;;;;;;;0.90;0.63;;;9.40;74.90;;;;;;5005661;28;20444;-59
2022/09/20 01:10:27;;;;;;;0.90;0.60;;;9.40;74.50;;;;;;5003639;28;20439;-59
2022/09/20 01:12:53;;;;;;;0.57;0.50;;;9.40;74.40;;;;;;5013907;28;20236;-58
2022/09/20 01:15:22;;;;;;;1.63;0.50;;;9.50;74.30;;;;;;4987155;28;20349;-59
2022/09/20 01:17:50;;;;;;;0.87;0.60;;;9.60;74.20;;;;;;4995943;28;20239;-59
2022/09/20 01:20:16;;;;;;;0.50;0.50;;;9.60;74.10;;;;;;5010653;28;20436;-59
2022/09/20 01:23:05;;;;;;;1.00;0.57;;;9.50;74.60;;;;;;5018076;28;20211;-59
2022/09/20 01:25:47;;;;;;;0.70;0.43;;;9.60;74.50;;;;;;5016603;28;20208;-59
2022/09/20 01:28:13;;;;;;;0.30;0.30;;;9.60;73.90;;;;;;4986048;28;20191;-59
2022/09/20 01:31:21;;;;;;;1.30;0.70;;;9.50;74.30;;;;;;5002325;28;20189;-58
2022/09/20 01:34:22;;;;;;;1.87;0.80;;;9.40;74.40;;;;;;5021144;28;20239;-61
2022/09/20 01:36:54;;;;;;;1.50;0.60;;;9.30;74.50;;;;;;5022405;28;20441;-59
2022/09/20 01:39:28;;;;;;;0.60;0.60;;;9.40;74.70;;;;;;5012739;28;20192;-59
2022/09/20 01:41:58;;;;;;;1.37;0.70;;;9.30;74.50;;;;;;5027641;28;20234;-59
2022/09/20 01:44:55;;;;;;;3.03;0.60;;;9.30;74.60;;;;;;5027151;28;20470;-59
2022/09/20 01:47:37;;;;;;;0.40;0.40;;;9.30;74.90;;;;;;4978652;28;20189;-58
2022/09/20 01:50:08;;;;;;;0.63;0.60;;;9.30;75.00;;;;;;4982556;28;20459;-59
2022/09/20 01:52:54;;;;;;;4.50;0.67;;;9.30;74.70;;;;;;5025685;28;20529;-59
2022/09/20 01:55:41;;;;;;;0.40;0.40;;;9.30;75.00;;;;;;5035295;28;20200;-59
2022/09/20 01:58:25;;;;;;;0.60;0.60;;;9.30;74.60;;;;;;5016786;28;20509;-59
2022/09/20 02:01:12;;;;;;;0.67;0.53;;;9.30;74.70;;;;;;4979820;28;20193;-59
2022/09/20 02:04:01;;;;;;;0.67;0.60;;;9.30;74.70;;;;;;5009927;28;20447;-59
2022/09/20 02:06:45;;;;;;;0.80;0.80;;;9.30;74.70;;;;;;5011134;28;20189;-59
2022/09/20 02:09:29;;;;;;;0.93;0.87;;;9.40;74.10;;;;;;5020147;28;20264;-59
2022/09/20 02:12:19;;;;;;;0.63;0.63;;;9.40;74.00;;;;;;5013298;28;20231;-59
2022/09/20 02:15:13;;;;;;;2.93;0.73;;;9.30;74.60;;;;;;5014529;28;20228;-59
2022/09/20 02:18:14;;;;;;;1.70;1.00;;;9.30;75.00;;;;;;5009353;28;20560;-59
2022/09/20 02:20:52;;;;;;;2.23;0.90;;;9.30;74.70;;;;;;4983248;28;20493;-59
2022/09/20 02:23:27;;;;;;;1.90;0.90;;;9.40;75.30;;;;;;5016253;28;20420;-59
2022/09/20 02:26:30;;;;;;;1.07;0.77;;;9.30;74.70;;;;;;5021151;28;20490;-59
2022/09/20 02:29:01;;;;;;;0.87;0.87;;;9.20;75.20;;;;;;5001101;28;20200;-59
2022/09/20 02:31:42;;;;;;;2.63;1.00;;;9.10;75.50;;;;;;5011100;28;20237;-59
2022/09/20 02:34:33;;;;;;;0.90;0.80;;;9.00;75.70;;;;;;5017867;28;20220;-59
2022/09/20 02:37:04;;;;;;;1.43;1.10;;;9.10;75.80;;;;;;4980172;28;20437;-59
2022/09/20 02:40:00;;;;;;;2.13;0.80;;;9.00;76.00;;;;;;5014734;28;20196;-59
2022/09/20 02:42:50;;;;;;;0.80;0.80;;;8.90;76.70;;;;;;4982089;28;20248;-59
2022/09/20 02:45:29;;;;;;;0.50;0.50;;;8.80;76.90;;;;;;4981853;28;20220;-59
2022/09/20 02:48:01;;;;;;;1.80;0.80;;;8.80;76.90;;;;;;4978577;28;20442;-59
2022/09/20 02:50:51;;;;;;;2.00;1.00;;;8.90;76.40;;;;;;4975933;28;20428;-59
2022/09/20 02:53:38;;;;;;;1.10;1.00;;;8.80;77.10;;;;;;4978273;28;20436;-59
2022/09/20 02:56:13;;;;;;;1.23;0.77;;;8.80;77.20;;;;;;5016969;28;20432;-59
2022/09/20 02:59:15;;;;;;;2.00;1.10;;;8.90;77.10;;;;;;5012773;28;20436;-58
2022/09/20 03:01:56;;;;;;;1.10;0.77;;;8.90;76.70;;;;;;5014004;28;20436;-58
2022/09/20 03:04:52;;;;;;;1.80;1.03;;;8.90;77.20;;;;;;5016743;28;20495;-58
2022/09/20 03:07:33;;;;;;;1.27;0.93;;;9.00;77.10;;;;;;5016749;28;20436;-58
2022/09/20 03:10:10;;;;;;;1.40;0.93;;;9.00;76.80;;;;;;5013288;28;20196;-59
2022/09/20 03:12:55;;;;;;;1.20;0.87;;;9.00;76.90;;;;;;4977629;28;20423;-59
2022/09/20 03:15:45;;;;;;;1.00;0.80;;;9.10;76.70;;;;;;4994035;28;20188;-59
2022/09/20 03:18:16;;;;;;;1.07;0.90;;;9.10;76.30;;;;;;5008129;28;20435;-59
2022/09/20 03:20:45;;;;;;;1.27;0.90;;;9.10;76.10;;;;;;5007601;28;20563;-59
2022/09/20 03:23:53;;;;;;;1.87;0.83;;;9.10;76.40;;;;;;5015187;28;20516;-59
2022/09/20 03:26:39;;;;;;;3.70;0.90;;;9.00;76.40;;;;;;5011988;28;20459;-59
2022/09/20 03:29:39;;;;;;;1.13;0.80;;;9.00;76.30;;;;;;4993015;28;20486;-59
2022/09/20 03:32:23;;;;;;;1.20;1.10;;;9.00;76.80;;;;;;5007020;28;20177;-59
2022/09/20 03:35:26;;;;;;;1.40;0.97;;;8.90;77.10;;;;;;4979941;28;20489;-59
2022/09/20 03:38:27;;;;;;;3.90;1.00;;;9.00;76.90;;;;;;5007934;28;21705;-59
2022/09/20 03:41:26;;;;;;;1.70;1.03;;;9.00;77.00;;;;;;4985494;28;20231;-59
2022/09/20 03:43:55;;;;;;;0.97;0.80;;;9.10;76.70;;;;;;5014355;28;20447;-59
2022/09/20 03:46:28;;;;;;;0.97;0.90;;;9.00;76.60;;;;;;5017457;28;20471;-59
2022/09/20 03:49:03;;;;;;;1.23;0.90;;;9.00;77.00;;;;;;5015934;28;20436;-59
2022/09/20 03:51:57;;;;;;;1.37;1.00;;;9.00;76.80;;;;;;5011449;28;20208;-58
2022/09/20 03:54:33;;;;;;;3.50;1.27;;;9.00;76.50;;;;;;4976868;28;20514;-58
2022/09/20 03:57:24;;;;;;;5.53;1.37;;;8.90;77.20;;;;;;4995527;28;20439;-58
2022/09/20 04:00:48;;;;;;;3.03;1.03;;;9.10;77.00;;;;;;5011055;28;20193;-58
2022/09/20 04:03:48;;;;;;;1.00;0.83;;;9.00;77.10;;;;;;4989740;28;20432;-58
2022/09/20 04:06:33;;;;;;;1.37;1.03;;;9.00;77.50;;;;;;5014757;28;20462;-58
2022/09/20 04:09:17;;;;;;;2.43;1.53;;;8.90;77.80;;;;;;5018743;28;20426;-58
2022/09/20 04:12:04;;;;;;;1.70;1.00;;;8.90;77.50;;;;;;4978933;28;20189;-58
2022/09/20 04:14:52;;;;;;;2.03;0.90;;;8.90;77.80;;;;;;4981266;28;20424;-59
2022/09/20 04:17:37;;;;;;;2.20;0.93;;;9.00;77.60;;;;;;4975449;28;20435;-60
2022/09/20 04:20:16;;;;;;;1.47;0.90;;;9.00;77.90;;;;;;4976866;28;20500;-59
2022/09/20 04:22:45;;;;;;;1.57;1.10;;;9.00;77.70;;;;;;4979825;28;20534;-59
2022/09/20 04:25:26;;;;;;;2.30;1.10;;;9.00;77.70;;;;;;5014701;28;20475;-58
2022/09/20 04:28:18;;;;;;;1.10;1.00;;;9.00;77.50;;;;;;4976075;28;20443;-58
2022/09/20 04:30:45;;;;;;;2.23;0.80;;;9.00;77.80;;;;;;4980551;28;20428;-58
2022/09/20 04:33:29;;;;;;;1.63;1.07;;;9.00;77.90;;;;;;5000000;28;20486;-58
2022/09/20 04:36:28;;;;;;;0.97;0.90;;;8.90;77.80;;;;;;4976249;28;20440;-58
2022/09/20 04:39:31;;;;;;;2.03;1.30;;;9.00;78.00;;;;;;5006635;28;20474;-58
2022/09/20 04:42:15;;;;;;;4.63;0.90;;;9.00;77.60;;;;;;4983112;28;20194;-58
2022/09/20 04:44:46;;;;;;;1.67;0.90;;;9.00;77.70;;;;;;5008585;28;20472;-58
2022/09/20 04:47:15;;;;;;;1.77;1.20;;;8.90;77.80;;;;;;5009869;28;20432;-58
2022/09/20 04:49:59;;;;;;;1.27;0.90;;;8.80;78.10;;;;;;5018261;28;20463;-58
2022/09/20 04:52:31;;;;;;;0.80;0.80;;;8.80;77.90;;;;;;5019199;28;20439;-58
2022/09/20 04:55:30;;;;;;;1.07;0.90;;;8.80;78.10;;;;;;5010650;28;20460;-59
2022/09/20 04:58:25;;;;;;;1.30;1.10;;;8.60;79.00;;;;;;5021928;28;20439;-58
2022/09/20 05:01:16;;;;;;;1.77;0.90;;;8.60;79.10;;;;;;5014465;28;20480;-58
2022/09/20 05:04:06;;;;;;;1.80;0.90;;;8.60;78.90;;;;;;5012323;28;20476;-58
2022/09/20 05:07:02;;;;;;;1.20;1.10;;;8.70;79.30;;;;;;5013623;28;20439;-58
2022/09/20 05:09:34;;;;;;;2.83;1.03;;;8.70;79.30;;;;;;4980725;28;20417;-58
2022/09/20 05:12:33;;;;;;;4.43;1.53;;;8.70;79.10;;;;;;4978079;28;20435;-58
2022/09/20 05:15:26;;;;;;;1.37;1.20;;;8.70;79.00;;;;;;4978549;28;20525;-58
2022/09/20 05:18:11;;;;;;;2.03;1.13;;;8.60;79.00;;;;;;5013703;28;20523;-58
2022/09/20 05:21:13;;;;;;;1.17;1.07;;;8.60;79.10;;;;;;5009694;28;20426;-58
2022/09/20 05:24:13;;;;;;;3.37;1.33;;;8.70;79.10;;;;;;4984817;28;20418;-58
2022/09/20 05:27:09;;;;;;;5.13;2.00;;;8.80;78.70;;;;;;4993115;28;20490;-58
2022/09/20 05:30:00;;;;;;;2.47;1.57;;;8.80;78.70;;;;;;5014839;28;20200;-59
2022/09/20 05:32:32;;;;;;;1.87;1.37;;;8.90;78.40;;;;;;4985044;28;20416;-59
2022/09/20 05:35:05;;;;;;;2.27;1.03;;;9.00;78.20;;;;;;4990740;28;20478;-58
2022/09/20 05:37:31;;;;;;;1.40;1.30;;;8.90;78.80;;;;;;5008975;28;20429;-58
2022/09/20 05:40:24;;;;;;;17.37;15.00;;;8.90;78.90;;;;;;5019839;28;20514;-58
2022/09/20 05:43:12;;;;;;;12.20;10.23;;;9.00;78.90;;;;;;5006892;28;20192;-58
2022/09/20 05:46:15;;;;;;;10.17;7.87;;;9.10;78.50;;;;;;5008309;28;21833;-58
2022/09/20 05:48:59;;;;;;;6.47;4.53;;;9.10;78.60;;;;;;5005785;28;20441;-58
2022/09/20 05:51:55;;;;;;;4.07;2.83;;;9.10;78.50;;;;;;5024045;28;20244;-58
2022/09/20 05:54:46;;;;;;;2.07;1.40;;;9.20;79.00;;;;;;4989110;28;20424;-58
2022/09/20 05:57:49;;;;;;;2.63;1.67;;;9.30;77.80;;;;;;4985793;28;20423;-58
2022/09/20 06:00:21;;;;;;;1.93;1.23;;;9.40;77.40;;;;;;5005798;28;20483;-58
2022/09/20 06:03:16;;;;;;;1.67;1.20;;;9.40;77.50;;;;;;5012960;28;20208;-58
2022/09/20 06:05:52;;;;;;;3.43;1.23;;;9.40;77.40;;;;;;4976142;28;20221;-58
2022/09/20 06:08:37;;;;;;;1.17;1.07;;;9.40;77.50;;;;;;4974434;28;20243;-59
2022/09/20 06:11:42;;;;;;;1.77;1.20;;;9.50;77.00;;;;;;5005789;28;20433;-58
2022/09/20 06:14:37;;;;;;;4.77;1.53;;;9.50;77.20;;;;;;5021081;28;20188;-58
2022/09/20 06:17:19;;;;;;;2.87;1.50;;;9.50;77.30;;;;;;5037726;28;20189;-58
2022/09/20 06:20:04;;;;;;;2.87;1.50;;;9.50;77.00;;;;;;5007591;28;20181;-58
2022/09/20 06:22:53;;;;;;;4.13;1.67;;;9.50;77.40;;;;;;5024063;28;20185;-58
2022/09/20 06:25:30;;;;;;;7.50;1.47;;;9.60;77.50;;;;;;4975036;28;20483;-58
2022/09/20 06:28:31;;;;;;;1.80;1.37;;;9.60;77.40;;;;;;4973897;28;20268;-58
2022/09/20 06:30:56;;;;;;;1.37;1.20;;;9.50;77.70;;;;;;4990396;28;20207;-58
2022/09/20 06:33:27;;;;;;;3.23;1.20;;;9.50;77.90;;;;;;5018555;28;20691;-58
2022/09/20 06:41:59;;;;;;;3.30;1.17;;;9.50;78.60;;;;;;4979645;28;20191;-58
2022/09/20 06:44:25;;;;;;;2.93;1.07;;;9.50;77.80;;;;;;5033349;28;20518;-58
2022/09/20 06:46:54;;;;;;;5.37;3.00;;;9.50;78.20;;;;;;4977016;28;20276;-58
2022/09/20 06:49:21;;;;;;;3.80;1.80;;;9.60;78.20;;;;;;5000592;28;20193;-58
2022/09/20 06:51:49;;;;;;;2.70;2.00;;;9.60;78.50;;;;;;4984852;28;20439;-58
2022/09/20 06:54:20;;;;;;;1.77;1.33;;;9.70;78.70;;;;;;4991067;28;20416;-58
2022/09/20 06:56:46;;;;;;;4.27;1.40;;;9.80;79.00;;;;;;5015566;28;20188;-58
2022/09/20 06:59:14;;;;;;;4.70;2.20;;;9.90;77.60;;;;;;5012617;28;20279;-58
2022/09/20 07:01:40;;;;;;;3.63;2.50;;;10.00;77.80;;;;;;5007318;28;20435;-58
2022/09/20 07:04:06;;;;;;;3.50;2.20;;;10.00;77.40;;;;;;5011574;28;20216;-59
2022/09/20 07:06:35;;;;;;;3.50;2.17;;;10.20;77.10;;;;;;4996576;28;20217;-58
2022/09/20 07:09:01;;;;;;;5.07;1.93;;;10.30;76.60;;;;;;5018227;28;20181;-58
2022/09/20 07:11:26;;;;;;;4.00;2.10;;;10.30;76.30;;;;;;5030781;28;20200;-58
2022/09/20 07:13:59;;;;;;;2.93;2.20;;;10.30;75.90;;;;;;5000705;28;20191;-58
2022/09/20 07:16:25;;;;;;;6.23;2.47;;;10.40;75.60;;;;;;5010421;28;20188;-58
2022/09/20 07:18:51;;;;;;;6.00;3.10;;;10.40;75.10;;;;;;5012945;28;20193;-58
2022/09/20 07:21:18;;;;;;;3.67;2.03;;;10.40;75.10;;;;;;5006314;28;20198;-58
2022/09/20 07:23:47;;;;;;;5.00;2.30;;;10.40;75.40;;;;;;4974013;28;20185;-58
2022/09/20 07:26:21;;;;;;;4.03;2.50;;;10.40;75.40;;;;;;5004477;28;20209;-58
2022/09/20 07:28:48;;;;;;;4.47;2.60;;;10.50;75.50;;;;;;5009547;28;20244;-58
2022/09/20 07:31:14;;;;;;;7.13;1.93;;;10.50;75.50;;;;;;5019412;28;20210;-59
2022/09/20 07:33:39;;;;;;;3.73;1.97;;;10.40;75.70;;;;;;5000191;28;20240;-58
2022/09/20 07:36:05;;;;;;;4.37;1.97;;;10.40;75.60;;;;;;4999204;28;20204;-58
2022/09/20 07:38:31;;;;;;;4.63;1.70;;;10.50;75.70;;;;;;4976417;28;20207;-58
2022/09/20 07:40:59;;;;;;;3.10;1.73;;;10.50;75.90;;;;;;4992258;28;20193;-58
2022/09/20 07:43:25;;;;;;;2.87;1.80;;;10.50;76.00;;;;;;5016149;28;20196;-58
2022/09/20 07:45:57;;;;;;;2.83;1.83;;;10.60;76.10;;;;;;4994701;28;20230;-58
2022/09/20 07:48:29;;;;;;;4.13;1.93;;;10.80;76.20;;;;;;4988973;28;20220;-58
2022/09/20 07:51:07;;;;;;;2.23;1.50;;;10.90;76.40;;;;;;4975150;28;20196;-58
2022/09/20 07:53:33;;;;;;;4.73;2.07;;;11.00;76.50;;;;;;4986529;28;20181;-58
2022/09/20 07:56:14;;;;;;;5.70;1.80;;;11.10;77.60;;;;;;5009005;28;20186;-58
2022/09/20 07:58:41;;;;;;;2.60;1.73;;;11.10;77.20;;;;;;4979220;28;20185;-58
2022/09/20 08:01:09;;;;;;;2.30;1.43;;;11.20;77.10;;;;;;4999136;28;20226;-58
2022/09/20 08:03:35;;;;;;;2.80;1.60;;;11.30;77.10;;;;;;5012475;28;20191;-58
2022/09/20 08:06:04;;;;;;;2.33;1.10;;;11.30;76.80;;;;;;4988647;28;20210;-59
2022/09/20 08:08:35;;;;;;;2.60;1.00;;;11.30;76.60;;;;;;4983540;28;20196;-58
2022/09/20 08:11:04;;;;;;;1.40;1.03;;;11.40;75.60;;;;;;4987819;28;20189;-58
2022/09/20 08:13:30;;;;;;;2.37;1.30;;;11.30;74.60;;;;;;5018427;28;20192;-58
2022/09/20 08:16:07;;;;;;;2.80;0.90;;;11.40;75.20;;;;;;5006211;28;20256;-58
2022/09/20 08:18:34;;;;;;;0.83;0.60;;;11.40;71.90;;;;;;4985320;28;20195;-58
2022/09/20 08:21:07;;;;;;;0.97;0.67;;;11.50;70.50;;;;;;5022843;28;20193;-58
2022/09/20 08:23:37;;;;;;;0.20;0.20;;;11.70;68.80;;;;;;4996517;28;20195;-58
2022/09/20 08:26:05;;;;;;;0.30;0.20;;;11.70;66.50;;;;;;4994860;28;20210;-58
2022/09/20 08:28:32;;;;;;;0.20;0.20;;;11.80;66.40;;;;;;5011373;28;20192;-58
2022/09/20 08:31:15;;;;;;;0.63;0.47;;;11.80;67.30;;;;;;4992801;28;20189;-58
2022/09/20 08:33:42;;;;;;;2.00;0.50;;;11.80;68.20;;;;;;4993514;28;20228;-58
2022/09/20 08:36:11;;;;;;;0.43;0.43;;;11.80;66.90;;;;;;4989633;28;20196;-58
2022/09/20 08:38:37;;;;;;;0.40;0.33;;;11.80;67.40;;;;;;5023263;28;20188;-58
2022/09/20 08:41:11;;;;;;;0.20;0.20;;;11.80;65.70;;;;;;4991085;28;20204;-58
2022/09/20 08:43:41;;;;;;;0.73;0.10;;;12.00;64.30;;;;;;4976392;28;20185;-58
2022/09/20 08:46:12;;;;;;;0.57;0.10;;;12.10;63.10;;;;;;4984070;28;20303;-58
2022/09/20 08:48:38;;;;;;;0.20;0.20;;;12.20;65.40;;;;;;5022806;28;20212;-58
2022/09/20 08:51:07;;;;;;;0.10;0.10;;;12.30;62.30;;;;;;4972137;28;20189;-58
2022/09/20 08:53:33;;;;;;;0.10;0.10;;;12.30;63.40;;;;;;5017997;28;20246;-58
2022/09/20 08:56:00;;;;;;;0.70;0.30;;;12.30;61.90;;;;;;4973580;28;20287;-58
2022/09/20 08:58:26;;;;;;;1.73;0.60;;;12.30;62.00;;;;;;5020244;28;20195;-58
2022/09/20 09:00:55;;;;;;;0.17;0.17;;;12.40;62.90;;;;;;5003883;28;20220;-58
2022/09/20 09:03:21;;;;;;;0.30;0.30;;;12.50;62.90;;;;;;4992056;28;20197;-58
2022/09/20 09:05:56;;;;;;;0.10;0.10;;;12.50;62.90;;;;;;5008939;28;20240;-58
2022/09/20 09:08:29;;;;;;;0.60;0.23;;;12.50;61.10;;;;;;4981697;28;20678;-58
2022/09/20 09:11:08;;;;;;;0.20;0.20;;;12.70;60.50;;;;;;4983617;28;20490;-58
2022/09/20 09:14:00;;;;;;;0.10;0.10;;;12.80;59.60;;;;;;5010493;28;20223;-58
2022/09/20 09:16:29;;;;;;;0.10;0.10;;;12.80;60.50;;;;;;4994700;28;20191;-58
2022/09/20 09:18:56;;;;;;;0.20;0.20;;;12.90;57.60;;;;;;4975346;28;20193;-58
2022/09/20 09:21:28;;;;;;;0.10;0.10;;;13.00;60.30;;;;;;5003851;28;20204;-58
2022/09/20 09:24:11;;;;;;;0.10;0.10;;;13.00;57.60;;;;;;5013928;28;20202;-58
2022/09/20 09:26:42;;;;;;;0.70;0.30;;;13.10;54.90;;;;;;4988993;28;20255;-58
2022/09/20 09:29:10;;;;;;;0.10;0.10;;;13.20;57.10;;;;;;5015908;28;20189;-58
2022/09/20 09:31:38;;;;;;;0.20;0.20;;;13.30;55.70;;;;;;4994059;28;20243;-58
2022/09/20 09:34:04;;;;;;;0.47;0.27;;;13.30;55.70;;;;;;5007926;28;20315;-58
2022/09/20 09:36:32;;;;;;;0.10;0.10;;;13.30;57.40;;;;;;5008440;28;20203;-59
2022/09/20 09:39:26;;;;;;;0.40;0.20;;;13.40;57.50;;;;;;4990510;28;20198;-58
2022/09/20 09:41:52;;;;;;;0.10;0.10;;;13.40;57.00;;;;;;4995166;28;20284;-58
2022/09/20 09:44:19;;;;;;;0.10;0.10;;;13.50;57.40;;;;;;4982604;28;20188;-58
2022/09/20 09:46:45;;;;;;;0.73;0.30;;;13.50;56.00;;;;;;4981087;28;20193;-58
2022/09/20 09:49:24;;;;;;;1.40;0.10;;;13.60;54.50;;;;;;4997214;28;20207;-59
2022/09/20 09:52:00;;;;;;;0.30;0.20;;;13.60;54.10;;;;;;4989783;28;20189;-58
2022/09/20 09:54:46;;;;;;;0.20;0.20;;;13.70;55.80;;;;;;4977595;28;20238;-58
2022/09/20 09:57:27;;;;;;;0.10;0.10;;;13.80;54.90;;;;;;4999141;28;20196;-58
2022/09/20 10:00:11;;;;;;;0.20;0.20;;;13.70;52.50;;;;;;4993517;28;20189;-58
2022/09/20 10:02:55;;;;;;;0.10;0.10;;;13.70;51.30;;;;;;4992419;28;20196;-59
2022/09/20 10:05:35;;;;;;;0.73;0.10;;;13.70;53.40;;;;;;4990735;28;20213;-58
2022/09/20 10:08:22;;;;;;;0.10;0.10;;;13.80;54.20;;;;;;5013550;28;20188;-58
2022/09/20 10:11:03;;;;;;;0.10;0.10;;;13.80;53.30;;;;;;4979111;28;20231;-58
2022/09/20 10:13:49;;;;;;;0.33;0.27;;;13.80;51.90;;;;;;5013471;28;20258;-58
2022/09/20 10:16:30;;;;;;;1.10;0.30;;;13.80;53.70;;;;;;5006607;28;20189;-58
2022/09/20 10:19:14;;;;;;;0.30;0.30;;;14.00;50.60;;;;;;5013801;28;20188;-58
2022/09/20 10:21:50;;;;;;;0.17;0.17;;;14.10;51.40;;;;;;5015671;28;20188;-58
2022/09/20 10:24:29;;;;;;;1.23;0.20;;;14.20;51.30;;;;;;4981998;28;20192;-58
2022/09/20 10:27:00;;;;;;;0.37;0.37;;;14.10;51.50;;;;;;5023802;28;20184;-58
2022/09/20 10:29:26;;;;;;;0.13;0.13;;;14.20;53.10;;;;;;5011450;28;20189;-58
2022/09/20 10:31:56;;;;;;;0.27;0.20;;;14.20;52.90;;;;;;5014622;28;20188;-58
2022/09/20 10:34:30;;;;;;;0.37;0.20;;;14.30;54.20;;;;;;5010982;28;20640;-58
2022/09/20 10:36:58;;;;;;;0.10;0.10;;;14.40;52.60;;;;;;5017846;28;20197;-58
2022/09/20 10:39:35;;;;;;;0.20;0.20;;;14.50;52.30;;;;;;4976250;28;20269;-59
2022/09/20 10:45:25;;;;;;;0.30;0.20;;;14.70;51.80;;;;;;4975300;28;20212;-58
2022/09/20 10:48:08;;;;;;;0.30;0.30;;;14.80;52.70;;;;;;4976690;28;20182;-58
2022/09/20 10:50:51;;;;;;;0.90;0.47;;;15.10;50.20;;;;;;5023228;28;20180;-59
2022/09/20 10:53:44;;;;;;;0.27;0.27;;;15.30;48.00;;;;;;5016554;28;20200;-59
2022/09/20 10:56:13;;;;;;;0.10;0.10;;;15.40;50.70;;;;;;4989633;28;20188;-59
2022/09/20 10:58:58;;;;;;;0.57;0.40;;;15.50;51.20;;;;;;5007149;28;20189;-59
2022/09/20 11:01:53;;;;;;;1.70;0.20;;;15.60;50.40;;;;;;5007799;28;20185;-59
2022/09/20 11:04:44;;;;;;;0.20;0.20;;;15.60;48.70;;;;;;4980122;28;20286;-59
2022/09/20 11:07:21;;;;;;;0.17;0.10;;;15.60;47.60;;;;;;5016199;28;20193;-58
2022/09/20 11:10:22;;;;;;;0.30;0.30;;;15.50;47.30;;;;;;4992301;28;20281;-59
2022/09/20 11:13:02;;;;;;;0.23;0.17;;;15.50;48.70;;;;;;4990064;28;20272;-58
2022/09/20 11:15:42;;;;;;;0.93;0.40;;;15.50;49.30;;;;;;5014910;28;20190;-59
2022/09/20 11:18:22;;;;;;;0.20;0.20;;;15.50;48.00;;;;;;5019372;28;20188;-58
2022/09/20 11:21:17;;;;;;;0.20;0.20;;;15.50;49.30;;;;;;5015893;28;20186;-58
2022/09/20 11:24:10;;;;;;;0.07;0.07;;;15.40;49.10;;;;;;4979464;28;20183;-58
2022/09/20 11:26:45;;;;;;;0.10;0.10;;;15.30;47.50;;;;;;4992356;28;20311;-59
2022/09/20 11:29:41;;;;;;;0.20;0.20;;;15.30;46.10;;;;;;5010176;28;20222;-58
2022/09/20 11:32:41;;;;;;;0.20;0.20;;;15.30;46.70;;;;;;4976117;28;20192;-58
2022/09/20 11:35:09;;;;;;;1.40;0.37;;;15.30;45.50;;;;;;4979738;28;20232;-58
2022/09/20 11:37:39;;;;;;;0.17;0.17;;;15.30;48.00;;;;;;5017343;28;20183;-58
2022/09/20 11:40:37;;;;;;;0.87;0.30;;;15.30;46.20;;;;;;5008360;28;20178;-58
2022/09/20 11:43:06;;;;;;;0.23;0.20;;;15.30;45.80;;;;;;4979206;28;20204;-58
2022/09/20 11:45:33;;;;;;;0.80;0.40;;;15.30;45.30;;;;;;4990081;28;20243;-58
2022/09/20 11:48:06;;;;;;;0.73;0.40;;;15.40;46.30;;;;;;5006654;28;20190;-58
2022/09/20 11:50:41;;;;;;;0.30;0.30;;;15.30;45.80;;;;;;4980354;28;20181;-58
2022/09/20 11:53:42;;;;;;;4.57;0.70;;;15.00;45.80;;;;;;5025358;28;20288;-58
2022/09/20 11:56:19;;;;;;;0.30;0.27;;;14.90;45.40;;;;;;4989538;28;20193;-58
2022/09/20 11:58:50;;;;;;;0.20;0.20;;;14.80;46.40;;;;;;4991835;28;20184;-58
2022/09/20 12:01:31;;;;;;;2.17;0.37;;;14.90;47.60;;;;;;4988483;28;20172;-58
2022/09/20 12:04:25;;;;;;;1.00;0.40;;;15.10;49.00;;;;;;4989032;28;20234;-58
2022/09/20 12:07:35;;;;;;;0.47;0.30;;;15.30;47.10;;;;;;4996268;28;20186;-59
2022/09/20 12:10:07;;;;;;;0.50;0.40;;;15.60;45.70;;;;;;5007211;28;20268;-58
2022/09/20 12:12:40;;;;;;;0.20;0.20;;;15.70;45.60;;;;;;4987536;28;20186;-58
2022/09/20 12:15:31;;;;;;;0.30;0.30;;;15.80;45.40;;;;;;4985444;28;20198;-58
2022/09/20 12:17:57;;;;;;;0.10;0.10;;;16.00;44.80;;;;;;4989378;28;20232;-58
2022/09/20 12:20:33;;;;;;;2.10;0.33;;;16.00;45.20;;;;;;4987790;28;20234;-58
2022/09/20 12:23:39;;;;;;;2.57;0.30;;;16.00;45.20;;;;;;5010485;28;20216;-58
2022/09/20 12:26:12;;;;;;;0.60;0.40;;;16.20;45.30;;;;;;4994975;28;20266;-58
2022/09/20 12:28:47;;;;;;;0.20;0.20;;;16.20;46.40;;;;;;5028569;28;20191;-58
2022/09/20 12:31:28;;;;;;;0.70;0.30;;;16.10;46.90;;;;;;5010320;28;20192;-58
2022/09/20 12:33:56;;;;;;;0.13;0.13;;;15.90;47.30;;;;;;4986183;28;20232;-58
2022/09/20 12:36:22;;;;;;;0.90;0.30;;;15.70;46.60;;;;;;5015798;28;20193;-58
2022/09/20 12:39:10;;;;;;;0.30;0.30;;;15.50;46.90;;;;;;5008001;28;20329;-58
2022/09/20 12:41:50;;;;;;;1.90;0.40;;;15.30;48.30;;;;;;4976578;28;20197;-58
2022/09/20 12:44:50;;;;;;;0.40;0.40;;;15.30;48.50;;;;;;5024683;28;20215;-58
2022/09/20 12:47:18;;;;;;;0.30;0.30;;;15.30;48.70;;;;;;4984406;28;20284;-58
2022/09/20 12:55:33;;;;;;;0.27;0.27;;;16.20;48.40;;;;;;4987220;28;20188;-58
2022/09/20 12:58:13;;;;;;;0.37;0.37;;;16.60;46.00;;;;;;5014098;28;20235;-59
2022/09/20 13:00:45;;;;;;;0.93;0.40;;;16.70;44.20;;;;;;5024239;28;20271;-58
2022/09/20 13:03:14;;;;;;;0.33;0.20;;;16.30;43.70;;;;;;5008408;28;20255;-58
2022/09/20 13:05:51;;;;;;;1.50;0.30;;;16.40;45.40;;;;;;5027711;28;20215;-58
2022/09/20 13:08:17;;;;;;;0.60;0.40;;;16.90;45.30;;;;;;4985889;28;20176;-59
2022/09/20 13:11:05;;;;;;;0.30;0.30;;;16.80;45.00;;;;;;5015327;28;20196;-59
2022/09/20 13:13:46;;;;;;;0.37;0.30;;;16.60;44.70;;;;;;5030233;28;20185;-59
2022/09/20 13:16:45;;;;;;;0.30;0.30;;;16.20;45.90;;;;;;4987863;28;20187;-58
2022/09/20 13:19:30;;;;;;;0.47;0.40;;;15.60;45.60;;;;;;4989568;28;20198;-58
2022/09/20 13:22:05;;;;;;;0.30;0.30;;;15.50;46.10;;;;;;4977265;28;20193;-58
2022/09/20 13:24:43;;;;;;;1.13;0.40;;;15.60;47.30;;;;;;4992774;28;20184;-58
2022/09/20 13:27:51;;;;;;;0.53;0.30;;;15.60;46.70;;;;;;5013257;28;20186;-59
2022/09/20 13:30:25;;;;;;;0.20;0.20;;;16.20;46.50;;;;;;4974651;28;20280;-58
2022/09/20 13:32:52;;;;;;;0.37;0.20;;;17.10;45.10;;;;;;4980154;28;20185;-59
2022/09/20 13:35:30;;;;;;;0.40;0.20;;;18.20;43.90;;;;;;5011328;28;20186;-59
2022/09/20 13:37:58;;;;;;;0.30;0.30;;;19.30;41.30;;;;;;5012852;28;20184;-59
2022/09/20 13:40:32;;;;;;;0.60;0.47;;;20.30;39.70;;;;;;4979786;28;20193;-59
2022/09/20 13:43:20;;;;;;;0.30;0.20;;;20.80;38.90;;;;;;5007363;28;20272;-59
2022/09/20 13:45:50;;;;;;;0.30;0.30;;;21.60;37.30;;;;;;4985868;28;20220;-59
2022/09/20 13:48:16;;;;;;;0.23;0.23;;;22.00;35.80;;;;;;5007834;28;20275;-59
2022/09/20 13:50:42;;;;;;;0.30;0.30;;;22.60;36.00;;;;;;5015928;28;20244;-59
2022/09/20 13:53:17;;;;;;;0.10;0.10;;;23.10;35.00;;;;;;4987866;28;20200;-59
2022/09/20 13:55:44;;;;;;;0.60;0.23;;;22.50;33.10;;;;;;4981266;28;20188;-59
2022/09/20 13:58:28;;;;;;;0.20;0.20;;;22.70;33.90;;;;;;4996442;28;20189;-59
2022/09/20 14:00:58;;;;;;;0.10;0.10;;;22.70;32.30;;;;;;5024192;28;20197;-59
2022/09/20 14:03:25;;;;;;;0.20;0.20;;;23.00;32.70;;;;;;4990499;28;20189;-60